createdAt,value
2022-09-20T00:00:52.194Z,9.71
2022-09-20T00:03:18.444Z,9.64
2022-09-20T00:05:44.617Z,9.67
2022-09-20T00:08:10.768Z,9.62
2022-09-20T00:10:36.938Z,9.56
2022-09-20T00:13:03.142Z,9.63
2022-09-20T00:15:29.381Z,9.66
2022-09-20T00:17:55.943Z,9.57
2022-09-20T00:20:22.060Z,9.55
2022-09-20T00:22:48.182Z,9.62
2022-09-20T00:25:14.298Z,9.62
2022-09-20T00:27:40.385Z,9.51
2022-09-20T00:30:06.475Z,9.54
2022-09-20T00:32:32.586Z,9.41
2022-09-20T00:34:58.687Z,9.36
2022-09-20T00:37:24.812Z,9.43
2022-09-20T00:39:50.935Z,9.38
2022-09-20T00:42:17.032Z,9.54
2022-09-20T00:44:43.138Z,9.52
2022-09-20T00:47:09.254Z,9.46
2022-09-20T00:49:35.348Z,9.44
2022-09-20T00:52:01.472Z,9.44
2022-09-20T00:54:27.586Z,9.48
2022-09-20T00:56:53.701Z,9.59
2022-09-20T00:59:19.785Z,9.59
2022-09-20T01:01:45.904Z,9.56
2022-09-20T01:04:12.006Z,9.50
2022-09-20T01:06:38.084Z,9.47
2022-09-20T01:09:04.231Z,9.49
2022-09-20T01:11:30.320Z,9.50
2022-09-20T01:13:56.424Z,9.48
2022-09-20T01:16:22.609Z,9.50
2022-09-20T01:18:48.708Z,9.54
2022-09-20T01:21:14.814Z,9.52
2022-09-20T01:23:40.924Z,9.51
2022-09-20T01:26:07.021Z,9.45
2022-09-20T01:28:33.119Z,9.50
2022-09-20T01:30:59.236Z,9.47
2022-09-20T01:33:25.320Z,9.40
2022-09-20T01:35:51.410Z,9.42
2022-09-20T01:38:17.533Z,9.41
2022-09-20T01:40:43.677Z,9.40
2022-09-20T01:43:09.793Z,9.52
2022-09-20T01:45:35.938Z,9.49
2022-09-20T01:48:02.046Z,9.48
2022-09-20T01:50:28.142Z,9.49
2022-09-20T01:52:54.244Z,9.48
2022-09-20T01:55:20.322Z,9.50
2022-09-20T01:57:46.420Z,9.42
2022-09-20T02:00:12.534Z,9.46
2022-09-20T02:02:38.676Z,9.43
2022-09-20T02:05:04.868Z,9.43
2022-09-20T02:07:31.011Z,9.50
2022-09-20T02:09:57.118Z,9.45
2022-09-20T02:12:23.224Z,9.42
2022-09-20T02:14:49.343Z,9.46
2022-09-20T02:17:15.454Z,9.41
2022-09-20T02:19:41.600Z,9.42
2022-09-20T02:22:08.193Z,9.49
2022-09-20T02:24:34.288Z,9.48
2022-09-20T02:27:00.401Z,9.50
2022-09-20T02:29:27.023Z,9.46
2022-09-20T02:31:53.139Z,9.48
2022-09-20T02:34:19.279Z,9.48
2022-09-20T02:36:45.392Z,9.50
2022-09-20T02:39:11.485Z,9.55
2022-09-20T02:41:37.572Z,9.69
2022-09-20T02:44:03.671Z,9.69
2022-09-20T02:46:29.780Z,9.66
2022-09-20T02:48:55.882Z,9.54
2022-09-20T02:51:21.994Z,9.62
2022-09-20T02:53:48.077Z,9.53
2022-09-20T02:56:14.162Z,9.58
2022-09-20T02:58:40.280Z,9.66
2022-09-20T03:01:06.441Z,9.70
2022-09-20T03:03:32.553Z,9.71
2022-09-20T03:05:58.707Z,9.70
2022-09-20T03:08:24.802Z,9.71
2022-09-20T03:10:50.902Z,9.71
2022-09-20T03:13:17.004Z,9.58
2022-09-20T03:15:43.093Z,9.55
2022-09-20T03:18:09.198Z,9.49
2022-09-20T03:20:35.332Z,9.57
2022-09-20T03:23:01.420Z,9.65
2022-09-20T03:25:27.551Z,9.55
2022-09-20T03:27:54.011Z,9.77
2022-09-20T03:30:20.105Z,9.49
2022-09-20T03:32:46.206Z,9.46
2022-09-20T03:35:12.313Z,9.43
2022-09-20T03:37:38.414Z,9.42
2022-09-20T03:40:04.620Z,9.39
2022-09-20T03:42:30.815Z,9.38
2022-09-20T03:44:56.925Z,9.32
2022-09-20T03:47:23.061Z,9.30
2022-09-20T03:49:49.183Z,9.30
2022-09-20T03:52:15.311Z,9.20
2022-09-20T03:54:41.397Z,9.28
2022-09-20T03:57:07.515Z,9.29
2022-09-20T03:59:33.600Z,9.24
2022-09-20T04:01:59.723Z,9.29
2022-09-20T04:04:25.860Z,9.24
2022-09-20T04:06:51.953Z,9.29
2022-09-20T04:09:18.045Z,9.26
2022-09-20T04:11:44.161Z,9.33
2022-09-20T04:14:11.515Z,9.30
2022-09-20T04:16:37.878Z,9.28
2022-09-20T04:19:04.822Z,9.24
2022-09-20T04:21:30.977Z,9.12
2022-09-20T04:23:57.098Z,9.07
2022-09-20T04:26:23.191Z,9.05
2022-09-20T04:28:49.285Z,9.07
2022-09-20T04:31:15.422Z,8.98
2022-09-20T04:33:41.553Z,9.10
2022-09-20T04:36:07.638Z,9.05
2022-09-20T04:38:33.726Z,9.27
2022-09-20T04:40:59.836Z,9.14
2022-09-20T04:43:25.940Z,9.23
2022-09-20T04:45:52.090Z,9.20
2022-09-20T04:48:18.232Z,9.08
2022-09-20T04:50:44.341Z,9.10
2022-09-20T04:53:10.431Z,9.09
2022-09-20T04:55:36.547Z,9.19
2022-09-20T04:58:02.644Z,9.26
2022-09-20T05:00:28.732Z,9.15
2022-09-20T05:02:54.843Z,9.21
2022-09-20T05:05:20.940Z,9.23
2022-09-20T05:07:47.017Z,9.22
2022-09-20T05:10:13.125Z,9.23
2022-09-20T05:12:39.219Z,9.41
2022-09-20T05:15:05.329Z,9.30
2022-09-20T05:17:31.438Z,9.29
2022-09-20T05:19:57.530Z,9.26
2022-09-20T05:22:23.619Z,9.32
2022-09-20T05:24:49.738Z,9.35
2022-09-20T05:27:15.825Z,9.44
2022-09-20T05:29:41.914Z,9.48
2022-09-20T05:32:08.836Z,9.56
2022-09-20T05:34:34.978Z,9.59
2022-09-20T05:37:01.086Z,9.62
2022-09-20T05:39:27.206Z,9.55
2022-09-20T05:41:53.288Z,9.52
2022-09-20T05:44:19.374Z,9.58
2022-09-20T05:46:45.517Z,9.70
2022-09-20T05:49:11.605Z,9.72
2022-09-20T05:51:37.683Z,9.76
2022-09-20T05:54:03.833Z,9.88
2022-09-20T05:56:29.925Z,9.72
2022-09-20T05:58:56.051Z,9.90
2022-09-20T06:01:22.202Z,9.90
2022-09-20T06:03:48.377Z,10.00
2022-09-20T06:06:14.504Z,10.01
2022-09-20T06:08:40.638Z,9.95
2022-09-20T06:11:06.793Z,9.93
2022-09-20T06:13:32.881Z,10.04
2022-09-20T06:15:59.055Z,10.15
2022-09-20T06:18:25.169Z,10.12
2022-09-20T06:20:51.366Z,10.15
2022-09-20T06:23:17.478Z,10.15
2022-09-20T06:25:43.583Z,10.29
2022-09-20T06:28:09.669Z,10.32
2022-09-20T06:30:35.819Z,10.32
2022-09-20T06:33:01.926Z,10.28
2022-09-20T06:35:28.010Z,10.19
2022-09-20T06:37:54.394Z,10.26
2022-09-20T06:40:20.550Z,10.33
2022-09-20T06:42:46.666Z,10.38
2022-09-20T06:45:12.773Z,10.40
2022-09-20T06:47:39.035Z,10.44
2022-09-20T06:50:05.140Z,10.41
2022-09-20T06:52:31.241Z,10.40
2022-09-20T06:54:57.331Z,10.56
2022-09-20T06:57:23.427Z,10.47
2022-09-20T06:59:49.580Z,10.49
2022-09-20T07:02:15.697Z,10.57
2022-09-20T07:04:41.823Z,10.60
2022-09-20T07:07:09.630Z,10.61
2022-09-20T07:09:35.783Z,10.69
2022-09-20T07:12:01.877Z,10.70
2022-09-20T07:14:27.992Z,10.82
2022-09-20T07:16:54.142Z,10.79
2022-09-20T07:19:20.256Z,10.93
2022-09-20T07:21:46.372Z,11.01
2022-09-20T07:24:12.465Z,11.03
2022-09-20T07:26:38.555Z,11.20
2022-09-20T07:29:04.760Z,11.18
2022-09-20T07:31:30.918Z,11.25
2022-09-20T07:33:57.044Z,11.28
2022-09-20T07:36:23.161Z,11.31
2022-09-20T07:38:49.247Z,11.26
2022-09-20T07:41:15.329Z,11.28
2022-09-20T07:43:41.430Z,11.33
2022-09-20T07:46:07.588Z,11.33
2022-09-20T07:48:33.712Z,11.31
2022-09-20T07:50:59.817Z,11.30
2022-09-20T07:53:25.962Z,11.21
2022-09-20T07:55:52.053Z,11.43
2022-09-20T07:58:18.180Z,11.48
2022-09-20T08:00:44.289Z,11.40
2022-09-20T08:03:10.546Z,11.46
2022-09-20T08:05:36.690Z,11.47
2022-09-20T08:08:02.780Z,11.57
2022-09-20T08:10:28.869Z,11.56
2022-09-20T08:15:41.076Z,11.82
2022-09-20T08:18:07.185Z,11.99
2022-09-20T08:20:33.357Z,12.05
2022-09-20T08:23:22.038Z,12.05
2022-09-20T08:25:45.602Z,12.14
2022-09-20T08:28:11.820Z,12.27
2022-09-20T08:30:37.908Z,12.44
2022-09-20T08:33:04.021Z,12.63
2022-09-20T08:35:30.125Z,12.64
2022-09-20T08:37:56.393Z,12.60
2022-09-20T08:40:23.114Z,12.59
2022-09-20T08:42:49.216Z,12.52
2022-09-20T08:45:22.260Z,12.36
2022-09-20T08:47:48.806Z,12.45
2022-09-20T08:50:17.633Z,12.50
2022-09-20T08:52:44.149Z,12.41
2022-09-20T08:55:10.346Z,12.47
2022-09-20T08:57:36.518Z,12.41
2022-09-20T09:00:02.665Z,12.73
2022-09-20T09:02:28.819Z,12.74
2022-09-20T09:04:55.009Z,12.88
2022-09-20T09:07:21.096Z,12.82
2022-09-20T09:09:47.212Z,12.97
2022-09-20T09:12:13.309Z,13.05
2022-09-20T09:14:39.408Z,12.93
2022-09-20T09:17:05.599Z,12.88
2022-09-20T09:19:34.699Z,12.92
2022-09-20T09:22:00.790Z,12.91
2022-09-20T09:24:27.044Z,12.84
2022-09-20T09:26:53.168Z,12.74
2022-09-20T09:29:19.279Z,12.78
2022-09-20T09:31:45.507Z,12.81
2022-09-20T09:34:11.639Z,12.68
2022-09-20T09:36:37.748Z,12.77
2022-09-20T09:39:03.891Z,12.86
2022-09-20T09:41:29.984Z,12.96
2022-09-20T09:43:56.167Z,13.07
2022-09-20T09:46:22.413Z,13.02
2022-09-20T09:48:48.559Z,12.82
2022-09-20T09:51:14.657Z,12.70
2022-09-20T09:53:40.761Z,12.78
2022-09-20T09:56:10.834Z,12.79
2022-09-20T09:58:39.502Z,12.62
2022-09-20T10:01:05.675Z,12.76
2022-09-20T10:03:31.817Z,13.03
2022-09-20T10:05:57.924Z,13.07
2022-09-20T10:08:24.020Z,13.17
2022-09-20T10:10:50.105Z,13.20
2022-09-20T10:13:16.220Z,13.11
2022-09-20T10:15:42.340Z,13.32
2022-09-20T10:18:08.680Z,13.49
2022-09-20T10:20:34.826Z,13.27
2022-09-20T10:23:34.461Z,13.43
2022-09-20T10:25:47.017Z,13.53
2022-09-20T10:28:13.128Z,13.50
2022-09-20T10:30:39.240Z,13.40
2022-09-20T10:33:05.366Z,13.61
2022-09-20T10:35:31.464Z,13.46
2022-09-20T10:37:57.583Z,13.37
2022-09-20T10:40:23.733Z,13.45
2022-09-20T10:42:49.921Z,13.49
2022-09-20T10:45:29.839Z,13.50
2022-09-20T10:48:02.137Z,13.50
2022-09-20T10:50:28.246Z,13.61
2022-09-20T10:52:54.350Z,13.76
2022-09-20T10:55:20.750Z,13.62
2022-09-20T10:57:47.094Z,13.89
2022-09-20T11:00:13.236Z,14.18
2022-09-20T11:02:39.455Z,14.06
2022-09-20T11:05:05.598Z,13.96
2022-09-20T11:07:32.731Z,13.98
2022-09-20T11:09:58.934Z,14.06
2022-09-20T11:12:25.044Z,14.25
2022-09-20T11:14:51.129Z,14.24
2022-09-20T11:17:17.258Z,14.15
2022-09-20T11:19:43.405Z,14.08
2022-09-20T11:22:09.526Z,14.02
2022-09-20T11:24:36.147Z,13.97
2022-09-20T11:27:02.238Z,14.19
2022-09-20T11:29:29.782Z,14.26
2022-09-20T11:31:55.992Z,14.24
2022-09-20T11:34:22.171Z,14.31
2022-09-20T11:36:48.275Z,14.13
2022-09-20T11:39:14.396Z,14.26
2022-09-20T11:41:40.489Z,14.54
2022-09-20T11:44:06.580Z,14.49
2022-09-20T11:46:32.740Z,14.64
2022-09-20T11:48:58.849Z,14.75
2022-09-20T11:51:24.953Z,14.72
2022-09-20T11:53:51.073Z,14.81
2022-09-20T11:56:17.158Z,14.61
2022-09-20T11:58:43.256Z,14.80
2022-09-20T12:01:09.409Z,14.86
2022-09-20T12:03:35.565Z,14.79
2022-09-20T12:06:01.698Z,14.97
2022-09-20T12:08:27.817Z,14.90
2022-09-20T12:10:53.907Z,14.76
2022-09-20T12:13:19.996Z,15.17
2022-09-20T12:15:46.097Z,15.04
2022-09-20T12:18:12.237Z,14.91
2022-09-20T12:20:38.361Z,15.06
2022-09-20T12:23:04.464Z,14.84
2022-09-20T12:25:30.576Z,14.82
2022-09-20T12:27:56.715Z,14.95
2022-09-20T12:30:22.890Z,15.08
2022-09-20T12:32:48.991Z,14.98
2022-09-20T12:35:15.108Z,15.02
2022-09-20T12:37:41.220Z,15.04
2022-09-20T12:40:07.561Z,15.04
2022-09-20T12:42:33.788Z,15.00
2022-09-20T12:44:59.976Z,15.06
2022-09-20T12:47:26.069Z,15.10
2022-09-20T12:49:52.164Z,15.29
2022-09-20T12:52:18.291Z,15.22
2022-09-20T12:54:44.578Z,15.12
2022-09-20T12:57:10.666Z,15.10
2022-09-20T12:59:36.790Z,15.20
2022-09-20T13:02:02.912Z,14.99
2022-09-20T13:04:29.675Z,14.92
2022-09-20T13:06:56.255Z,15.07
2022-09-20T13:09:22.379Z,15.03
2022-09-20T13:11:48.504Z,15.15
2022-09-20T13:14:14.626Z,15.10
2022-09-20T13:16:40.802Z,15.22
2022-09-20T13:19:07.121Z,15.24
2022-09-20T13:21:33.461Z,15.38
2022-09-20T13:23:59.577Z,15.49
2022-09-20T13:26:25.675Z,15.49
2022-09-20T13:28:51.794Z,15.36
2022-09-20T13:31:17.926Z,15.04
2022-09-20T13:33:44.058Z,14.97
2022-09-20T13:36:10.200Z,14.86
2022-09-20T13:38:36.300Z,14.72
2022-09-20T13:41:02.398Z,14.74
2022-09-20T13:43:28.516Z,14.74
2022-09-20T13:45:54.658Z,14.82
2022-09-20T13:48:20.818Z,14.68
2022-09-20T13:50:51.390Z,14.84
2022-09-20T13:53:39.349Z,14.85
2022-09-20T13:56:05.776Z,14.62
2022-09-20T13:58:31.900Z,14.74
2022-09-20T14:00:58.062Z,14.65
2022-09-20T14:03:24.273Z,14.52
2022-09-20T14:05:50.367Z,14.57
2022-09-20T14:08:16.504Z,14.65
2022-09-20T14:10:42.605Z,14.57
2022-09-20T14:13:08.695Z,14.60
2022-09-20T14:15:34.825Z,14.66
2022-09-20T14:18:00.929Z,14.66
2022-09-20T14:20:27.118Z,14.75
2022-09-20T14:22:56.110Z,14.63
2022-09-20T14:25:25.131Z,14.67
2022-09-20T14:27:51.227Z,14.76
2022-09-20T14:30:17.307Z,14.73
2022-09-20T14:32:43.412Z,14.83
2022-09-20T14:35:09.681Z,14.70
2022-09-20T14:37:35.839Z,14.95
2022-09-20T14:40:02.088Z,15.24
2022-09-20T14:42:28.275Z,15.32
2022-09-20T14:44:54.363Z,15.74
2022-09-20T14:47:20.465Z,15.82
2022-09-20T14:49:46.566Z,16.07
2022-09-20T14:52:12.652Z,16.38
2022-09-20T14:54:38.792Z,16.15
2022-09-20T14:57:04.895Z,16.24
2022-09-20T14:59:30.996Z,16.22
2022-09-20T15:01:57.110Z,16.21
2022-09-20T15:04:23.224Z,16.52
2022-09-20T15:06:49.304Z,16.87
2022-09-20T15:09:15.714Z,17.25
2022-09-20T15:11:41.815Z,18.33
2022-09-20T15:14:07.900Z,18.30
2022-09-20T15:16:34.055Z,16.78
2022-09-20T15:19:00.194Z,16.20
2022-09-20T15:21:26.285Z,16.05
2022-09-20T15:23:52.393Z,16.05
2022-09-20T15:26:18.486Z,16.31
2022-09-20T15:28:44.713Z,18.55
2022-09-20T15:31:10.896Z,18.77
2022-09-20T15:33:37.034Z,20.25
2022-09-20T15:36:03.135Z,21.20
2022-09-20T15:38:29.250Z,21.10
2022-09-20T15:40:55.338Z,21.38
2022-09-20T15:43:21.421Z,21.18
2022-09-20T15:45:47.566Z,21.59
2022-09-20T15:48:13.680Z,21.43
2022-09-20T15:50:39.765Z,21.66
2022-09-20T15:53:05.892Z,21.30
2022-09-20T15:55:31.990Z,20.74
2022-09-20T15:57:58.112Z,18.59
2022-09-20T16:00:24.709Z,19.86
2022-09-20T16:02:50.798Z,19.76
2022-09-20T16:05:16.886Z,19.42
2022-09-20T16:07:43.007Z,19.65
2022-09-20T16:10:09.110Z,19.61
2022-09-20T16:12:35.199Z,19.57
2022-09-20T16:15:01.315Z,19.64
2022-09-20T16:17:27.407Z,19.32
2022-09-20T16:19:53.498Z,19.08
2022-09-20T16:22:19.597Z,19.42
2022-09-20T16:24:45.686Z,19.54
2022-09-20T16:27:11.779Z,18.89
2022-09-20T16:29:37.893Z,18.66
2022-09-20T16:32:03.994Z,18.46
2022-09-20T16:34:30.078Z,18.04
2022-09-20T16:36:56.180Z,18.10
2022-09-20T16:39:22.273Z,18.35
2022-09-20T16:41:48.383Z,18.21
2022-09-20T16:44:14.529Z,18.05
2022-09-20T16:46:40.632Z,18.10
2022-09-20T16:49:06.888Z,18.25
2022-09-20T16:51:33.054Z,18.21
2022-09-20T16:53:59.133Z,17.50
2022-09-20T16:56:25.250Z,17.53
2022-09-20T16:58:51.379Z,17.29
2022-09-20T17:01:17.563Z,16.77
2022-09-20T17:03:43.668Z,16.91
2022-09-20T17:06:09.772Z,16.40
2022-09-20T17:08:35.870Z,16.29
2022-09-20T17:11:01.964Z,16.10
2022-09-20T17:13:28.134Z,16.06
2022-09-20T17:15:54.226Z,16.02
2022-09-20T17:18:20.328Z,15.23
2022-09-20T17:20:46.437Z,14.98
2022-09-20T17:23:12.529Z,14.23
2022-09-20T17:25:38.627Z,14.24
2022-09-20T17:28:04.729Z,14.27
2022-09-20T17:30:30.822Z,14.23
2022-09-20T17:32:56.938Z,14.06
2022-09-20T17:35:23.031Z,14.03
2022-09-20T17:37:49.172Z,14.23
2022-09-20T17:40:15.300Z,13.98
2022-09-20T17:42:41.459Z,13.96
2022-09-20T17:45:07.658Z,14.04
2022-09-20T17:47:33.767Z,13.98
2022-09-20T17:49:59.913Z,13.92
2022-09-20T17:52:26.009Z,13.78
2022-09-20T17:54:52.197Z,13.81
2022-09-20T17:57:18.311Z,13.83
2022-09-20T17:59:44.414Z,13.84
2022-09-20T18:02:10.510Z,13.76
2022-09-20T18:04:37.093Z,13.74
2022-09-20T18:07:03.176Z,13.64
2022-09-20T18:09:29.269Z,13.63
2022-09-20T18:11:55.446Z,13.59
2022-09-20T18:14:21.568Z,13.61
2022-09-20T18:16:47.673Z,13.58
2022-09-20T18:19:14.322Z,13.58
2022-09-20T18:21:40.422Z,13.42
2022-09-20T18:24:06.515Z,13.40
2022-09-20T18:26:32.745Z,13.29
2022-09-20T18:28:59.246Z,13.25
2022-09-20T18:31:25.379Z,13.13
2022-09-20T18:33:51.604Z,13.12
2022-09-20T18:36:17.706Z,13.03
2022-09-20T18:38:43.799Z,12.92
2022-09-20T18:41:10.279Z,12.97
2022-09-20T18:43:36.357Z,12.88
2022-09-20T18:46:02.436Z,12.77
2022-09-20T18:48:28.547Z,12.74
2022-09-20T18:50:54.639Z,12.69
2022-09-20T18:53:20.726Z,12.64
2022-09-20T18:55:46.842Z,12.69
2022-09-20T18:58:12.942Z,12.62
2022-09-20T19:00:39.113Z,12.54
2022-09-20T19:03:10.027Z,12.54
2022-09-20T19:05:36.443Z,12.47
2022-09-20T19:08:02.526Z,12.46
2022-09-20T19:10:28.725Z,12.49
2022-09-20T19:12:54.813Z,12.43
2022-09-20T19:15:20.919Z,12.37
2022-09-20T19:17:47.036Z,12.20
2022-09-20T19:20:13.131Z,12.17
2022-09-20T19:22:39.265Z,12.15
2022-09-20T19:25:05.489Z,12.07
2022-09-20T19:27:31.605Z,11.99
2022-09-20T19:29:57.706Z,11.94
2022-09-20T19:32:23.814Z,11.90
2022-09-20T19:34:49.905Z,11.73
2022-09-20T19:37:16.012Z,11.82
2022-09-20T19:39:42.136Z,11.77
2022-09-20T19:42:08.278Z,11.68
2022-09-20T19:44:34.373Z,11.73
2022-09-20T19:47:01.928Z,11.52
2022-09-20T19:49:28.191Z,11.55
2022-09-20T19:51:54.290Z,11.51
2022-09-20T19:54:20.427Z,11.47
2022-09-20T19:56:46.549Z,11.43
2022-09-20T19:59:12.646Z,11.40
2022-09-20T20:01:38.805Z,11.41
2022-09-20T20:04:05.020Z,11.23
2022-09-20T20:06:31.191Z,11.12
2022-09-20T20:08:57.318Z,11.12
2022-09-20T20:11:23.408Z,11.08
2022-09-20T20:13:49.517Z,10.97
2022-09-20T20:16:15.694Z,11.02
2022-09-20T20:18:41.813Z,11.06
2022-09-20T20:21:07.907Z,11.03
2022-09-20T20:23:34.291Z,11.13
2022-09-20T20:26:00.381Z,11.30
2022-09-20T20:28:26.476Z,11.33
2022-09-20T20:30:55.582Z,11.14
2022-09-20T20:33:23.969Z,10.98
2022-09-20T20:35:50.056Z,10.74
2022-09-20T20:38:16.182Z,10.54
2022-09-20T20:40:42.273Z,10.48
2022-09-20T20:43:08.361Z,10.58
2022-09-20T20:45:34.480Z,10.55
2022-09-20T20:48:00.579Z,10.60
2022-09-20T20:50:26.664Z,10.61
2022-09-20T20:52:52.786Z,10.58
2022-09-20T20:55:18.876Z,10.70
2022-09-20T20:57:44.970Z,10.57
2022-09-20T21:00:11.088Z,10.49
2022-09-20T21:02:37.217Z,10.34
2022-09-20T21:05:03.360Z,10.32
2022-09-20T21:07:29.479Z,10.40
2022-09-20T21:09:55.584Z,10.39
2022-09-20T21:12:21.682Z,10.40
2022-09-20T21:14:48.205Z,10.38
2022-09-20T21:17:14.310Z,10.42
2022-09-20T21:19:40.406Z,10.38
2022-09-20T21:22:06.511Z,10.31
2022-09-20T21:24:32.592Z,10.09
2022-09-20T21:26:58.677Z,9.93
2022-09-20T21:29:24.830Z,10.13
2022-09-20T21:31:50.912Z,10.14
2022-09-20T21:34:17.007Z,10.05
2022-09-20T21:36:43.122Z,9.98
2022-09-20T21:39:09.244Z,9.97
2022-09-20T21:41:35.480Z,9.89
2022-09-20T21:44:01.604Z,9.88
2022-09-20T21:46:27.767Z,9.93
2022-09-20T21:48:53.962Z,10.06
2022-09-20T21:51:20.123Z,9.99
2022-09-20T21:53:46.220Z,10.08
2022-09-20T21:56:12.297Z,10.07
2022-09-20T21:58:38.410Z,9.96
2022-09-20T22:01:04.542Z,9.94
2022-09-20T22:03:30.661Z,9.88
2022-09-20T22:05:56.771Z,9.95
2022-09-20T22:08:22.870Z,10.01
2022-09-20T22:10:48.968Z,10.07
2022-09-20T22:13:15.080Z,10.02
2022-09-20T22:15:41.182Z,9.83
2022-09-20T22:18:07.291Z,9.73
2022-09-20T22:20:33.446Z,9.75
2022-09-20T22:22:59.537Z,9.75
2022-09-20T22:25:25.653Z,9.84
2022-09-20T22:27:51.764Z,9.82
2022-09-20T22:30:17.867Z,10.05
2022-09-20T22:32:43.985Z,9.99
2022-09-20T22:35:10.117Z,9.97
2022-09-20T22:37:36.206Z,9.88
2022-09-20T22:40:02.356Z,9.94
2022-09-20T22:42:28.524Z,9.95
2022-09-20T22:44:54.694Z,9.92
2022-09-20T22:47:20.798Z,9.84
2022-09-20T22:49:46.941Z,9.69
2022-09-20T22:52:13.053Z,9.70
2022-09-20T22:54:39.140Z,9.57
2022-09-20T22:57:05.326Z,9.39
2022-09-20T22:59:31.425Z,9.59
2022-09-20T23:01:57.564Z,9.74
2022-09-20T23:04:23.675Z,9.68
2022-09-20T23:06:49.764Z,9.65
2022-09-20T23:09:15.859Z,9.60
2022-09-20T23:11:41.972Z,9.55
2022-09-20T23:14:08.071Z,9.50
2022-09-20T23:16:34.197Z,9.29
2022-09-20T23:19:00.363Z,9.28
2022-09-20T23:21:26.452Z,9.31
2022-09-20T23:23:52.556Z,9.26
2022-09-20T23:26:18.673Z,9.24
2022-09-20T23:28:44.768Z,9.30
2022-09-20T23:31:10.878Z,9.25
2022-09-20T23:33:37.514Z,9.25
2022-09-20T23:36:03.615Z,9.25
2022-09-20T23:38:29.709Z,9.22
2022-09-20T23:40:55.820Z,8.96
2022-09-20T23:43:21.909Z,8.97
2022-09-20T23:45:48.003Z,8.98
2022-09-20T23:48:14.144Z,9.01
2022-09-20T23:50:40.226Z,8.95
2022-09-20T23:53:06.313Z,8.96
2022-09-20T23:55:32.431Z,8.91
2022-09-20T23:57:58.532Z,8.94
